»·PEaware :: UPS234 KPHX-KONT

UPS234 :: KPHX-KONT

FLIGHT INFORMATION

Flight Status: Arrived
Operator:
United Parcel Service
More flights by this operator :: More flights under this callsign
Pilot: Peter H. (12565)
Aircraft: BOEING 767-300
(B763)
More flights by this aircraft type
Origin: KPHX Phoenix Sky Harbor Intl
United States
Destination: KONT Ontario Intl
United States
More flights between these airports :: More routes between these airports
Route: IZZZO6 HRRBR PHRED SCBBY1
File this flight plan on PilotEdge
Remarks:
Altitude:
(Current/Filed)
30,000ft
Speed:
(Current/Filed)
430kts
Departed: 28-Sep-17 03:14 PM
Arrived: 28-Sep-17 04:10 PM
Distance/Time
Traveled:
282nm/0:56
Distance/Time
To Go:
Arrived

Flight Plot

Page will automatically refresh every two minutes.

Flight plan parsing failed; only flown route is shown


Map Options




Map Legend


Flown Route
Filed Route
Departure Airport
Arrival Airport
Navaid (VOR, NDB)
Fix

Horizontal Profiles

Position Reports

Time Latitude Longitude Heading Altitude Ground
Speed
28-Sep-17 15:07 33.425176 -112.016500 41 1120ft 11kts
28-Sep-17 15:08 33.425440 -112.016388 4 1120ft 0kts
28-Sep-17 15:09 33.425440 -112.016388 4 1120ft 0kts
28-Sep-17 15:10 33.425440 -112.016388 4 1120ft 0kts
28-Sep-17 15:11 33.425440 -112.016388 4 1120ft 0kts
28-Sep-17 15:12 33.425440 -112.016388 4 1120ft 0kts
28-Sep-17 15:13 33.425440 -112.016388 4 1120ft 0kts
28-Sep-17 15:14 33.425440 -112.016388 4 1120ft 0kts
28-Sep-17 15:15 33.427403 -112.016121 53 1122ft 9kts
28-Sep-17 15:16 33.427777 -112.009810 88 1122ft 34kts
28-Sep-17 15:17 33.428560 -112.005272 346 1124ft 7kts
28-Sep-17 15:18 33.428808 -112.030280 270 1473ft 162kts
28-Sep-17 15:19 33.430940 -112.090155 273 3234ft 223kts
28-Sep-17 15:20 33.433996 -112.166081 273 5667ft 277kts
28-Sep-17 15:21 33.437365 -112.253687 274 9152ft 297kts
28-Sep-17 15:22 33.440956 -112.348335 273 12142ft 329kts
28-Sep-17 15:23 33.444936 -112.455995 270 14811ft 366kts
28-Sep-17 15:24 33.448707 -112.561372 269 18171ft 366kts
28-Sep-17 15:25 33.450942 -112.665861 270 21000ft 371kts
28-Sep-17 15:26 33.452356 -112.778595 273 23495ft 381kts
28-Sep-17 15:27 33.471011 -112.897670 284 25439ft 397kts
28-Sep-17 15:28 33.492688 -113.014556 284 26669ft 428kts
28-Sep-17 15:29 33.517293 -113.146596 283 27845ft 461kts
28-Sep-17 15:30 33.542751 -113.283647 283 29878ft 461kts
28-Sep-17 15:31 33.567251 -113.417556 283 29887ft 457kts
28-Sep-17 15:32 33.593420 -113.560378 283 29887ft 457kts
28-Sep-17 15:33 33.619144 -113.698972 283 29886ft 457kts
28-Sep-17 15:34 33.644033 -113.834096 282 29885ft 456kts
28-Sep-17 15:35 33.647838 -113.967518 271 29887ft 458kts
28-Sep-17 15:36 33.645807 -114.102049 270 29885ft 459kts
28-Sep-17 15:37 33.655506 -114.217207 277 29889ft 458kts
28-Sep-17 15:38 33.670927 -114.373875 277 29887ft 458kts
28-Sep-17 15:39 33.684089 -114.509283 277 29887ft 458kts
28-Sep-17 15:40 33.697326 -114.647050 277 29886ft 458kts
28-Sep-17 15:41 33.708183 -114.761286 277 29886ft 458kts
28-Sep-17 15:42 33.721092 -114.898609 277 29885ft 458kts
28-Sep-17 15:43 33.736134 -115.060952 278 29884ft 459kts
28-Sep-17 15:44 33.749688 -115.201563 278 28902ft 458kts
28-Sep-17 15:45 33.761502 -115.317034 278 27497ft 437kts
28-Sep-17 15:46 33.774624 -115.446603 278 25883ft 428kts
28-Sep-17 15:47 33.787546 -115.572242 279 24290ft 419kts
28-Sep-17 15:48 33.800021 -115.696039 279 23082ft 386kts
28-Sep-17 15:49 33.811103 -115.807105 279 22601ft 384kts
28-Sep-17 15:50 33.822824 -115.925872 279 22059ft 381kts
28-Sep-17 15:51 33.833930 -116.039541 279 21509ft 379kts
28-Sep-17 15:52 33.845279 -116.152766 279 20602ft 381kts
28-Sep-17 15:53 33.856982 -116.266785 278 18528ft 380kts
28-Sep-17 15:54 33.868007 -116.369545 278 17146ft 364kts
28-Sep-17 15:55 33.880085 -116.466111 285 15883ft 348kts
28-Sep-17 15:56 33.903939 -116.562454 284 14481ft 355kts
28-Sep-17 15:57 33.928843 -116.661427 285 12494ft 361kts
28-Sep-17 15:58 33.947287 -116.761582 267 10128ft 310kts
28-Sep-17 15:59 33.944801 -116.851684 267 9333ft 296kts
28-Sep-17 16:00 33.941937 -116.936751 268 9396ft 293kts
28-Sep-17 16:01 33.961004 -117.019726 294 8753ft 286kts
28-Sep-17 16:02 33.985355 -117.093814 292 7045ft 262kts
28-Sep-17 16:03 34.006414 -117.160585 292 5153ft 252kts
28-Sep-17 16:04 34.025139 -117.220136 292 4173ft 201kts
28-Sep-17 16:05 34.041446 -117.272496 292 4008ft 184kts
28-Sep-17 16:06 34.055755 -117.317617 280 4025ft 167kts
28-Sep-17 16:07 34.056556 -117.364645 270 3998ft 168kts
28-Sep-17 16:08 34.056752 -117.409566 270 3625ft 145kts
28-Sep-17 16:09 34.056756 -117.450137 270 2951ft 141kts
28-Sep-17 16:10 34.056609 -117.486503 270 2440ft 140kts
28-Sep-17 16:11 34.056642 -117.521938 270 1903ft 138kts
28-Sep-17 16:12 34.056684 -117.557457 270 1362ft 138kts
28-Sep-17 16:13 34.056869 -117.591506 270 935ft 117kts
28-Sep-17 16:14 34.057433 -117.607630 323 943ft 3kts
28-Sep-17 16:15 34.057497 -117.607689 321 943ft 2kts

Navigation Log

Ident Type
Flight plan parsing failed, navigation log unavailable